Time;durP1;ratioP1;P1;durP2;ratioP2;P2;SDS_P1;SDS_P2;PMS_P1;PMS_P2;Temp;Humidity;BMP_temperature;BMP_pressure;BME280_temperature;BME280_humidity;BME280_pressure;Samples;Min_cycle;Max_cycle;Signal;HPM_P1;HPM_P2
2022/10/28 00:00:24;;;;;;;;;;;;;;;10.41;94.31;100662.51;1685727;85;20206;-86
2022/10/28 00:02:50;;;;;;;;;;;;;;;10.41;94.33;100663.83;1686167;85;20379;-83
2022/10/28 00:05:16;;;;;;;;;;;;;;;10.38;94.28;100661.23;1685850;85;20172;-85
2022/10/28 00:07:44;;;;;;;;;;;;;;;10.35;94.29;100657.33;1685789;84;20164;-85
2022/10/28 00:10:10;;;;;;;;;;;;;;;10.32;94.39;100659.14;1685752;85;20209;-86
2022/10/28 00:12:38;;;;;;;;;;;;;;;10.31;94.51;100658.25;1685832;84;20223;-86
2022/10/28 00:15:06;;;;;;;;;;;;;;;10.33;94.48;100670.10;1685810;85;20654;-87
2022/10/28 00:17:32;;;;;;;;;;;;;;;10.31;94.45;100660.02;1685708;84;20198;-86
2022/10/28 00:19:58;;;;;;;;;;;;;;;10.28;94.53;100658.30;1685614;85;22463;-78
2022/10/28 00:22:26;;;;;;;;;;;;;;;10.28;94.57;100664.87;1685710;84;20387;-86
2022/10/28 00:24:53;;;;;;;;;;;;;;;10.27;94.57;100665.78;1685968;84;20477;-84
2022/10/28 00:27:19;;;;;;;;;;;;;;;10.25;94.58;100666.68;1686000;85;20202;-85
2022/10/28 00:29:46;;;;;;;;;;;;;;;10.21;94.72;100668.48;1685868;84;20223;-84
2022/10/28 00:32:12;;;;;;;;;;;;;;;10.17;94.80;100668.09;1685980;85;21135;-84
2022/10/28 00:34:39;;;;;;;;;;;;;;;10.13;94.92;100663.78;1685722;85;20144;-84
2022/10/28 00:37:05;;;;;;;;;;;;;;;10.10;95.12;100666.45;1685937;84;20168;-85
2022/10/28 00:39:31;;;;;;;;;;;;;;;10.06;95.35;100669.58;1685660;85;20496;-86
2022/10/28 00:42:02;;;;;;;;;;;;;;;10.02;95.49;100668.75;1686095;84;20202;-87
2022/10/28 00:44:56;;;;;;;;;;;;;;;9.99;95.72;100659.59;1686037;84;21982;-87
2022/10/28 00:47:41;;;;;;;;;;;;;;;9.99;95.81;100662.22;1685660;85;20205;-86
2022/10/28 00:50:29;;;;;;;;;;;;;;;9.96;95.95;100676.72;1685719;85;20207;-86
2022/10/28 00:53:00;;;;;;;;;;;;;;;9.94;96.11;100675.88;1685741;84;20215;-85
2022/10/28 00:55:26;;;;;;;;;;;;;;;9.93;96.17;100675.44;1685847;85;20511;-82
2022/10/28 00:57:55;;;;;;;;;;;;;;;9.93;96.23;100679.38;1685706;85;21365;-83
2022/10/28 01:00:22;;;;;;;;;;;;;;;9.94;96.29;100682.44;1685678;85;20199;-86
2022/10/28 01:02:48;;;;;;;;;;;;;;;9.96;96.27;100679.80;1686001;84;20187;-85
2022/10/28 01:05:18;;;;;;;;;;;;;;;9.97;96.24;100679.78;1685653;85;20992;-84
2022/10/28 01:07:45;;;;;;;;;;;;;;;10.00;96.11;100679.75;1685720;85;20505;-83
2022/10/28 01:10:13;;;;;;;;;;;;;;;10.00;96.07;100679.75;1685809;84;20143;-85
2022/10/28 01:13:00;;;;;;;;;;;;;;;10.00;96.04;100670.55;1685644;84;20191;-83
2022/10/28 01:15:34;;;;;;;;;;;;;;;9.99;96.03;100668.79;1685521;85;20152;-84
2022/10/28 01:18:05;;;;;;;;;;;;;;;10.02;96.02;100667.44;1685934;85;20222;-83
2022/10/28 01:20:52;;;;;;;;;;;;;;;10.04;95.92;100676.16;1685646;85;20286;-82
2022/10/28 01:23:45;;;;;;;;;;;;;;;10.04;95.71;100674.85;1686037;84;21095;-85
2022/10/28 01:26:18;;;;;;;;;;;;;;;10.01;95.67;100681.46;1685770;84;20265;-84
2022/10/28 01:28:49;;;;;;;;;;;;;;;9.99;95.71;100677.99;1685664;85;20087;-85
2022/10/28 01:31:30;;;;;;;;;;;;;;;9.97;95.80;100676.26;1686037;85;20202;-86
2022/10/28 01:34:17;;;;;;;;;;;;;;;9.96;95.82;100674.09;1685619;84;20187;-84
2022/10/28 01:37:09;;;;;;;;;;;;;;;9.95;95.82;100676.31;1685619;84;21208;-81
2022/10/28 01:39:46;;;;;;;;;;;;;;;9.96;95.80;100671.91;1685591;84;20167;-84
2022/10/28 01:42:19;;;;;;;;;;;;;;;9.94;95.80;100677.19;1685689;84;20210;-81
2022/10/28 01:45:05;;;;;;;;;;;;;;;9.90;95.95;100675.50;1685623;85;20403;-84
2022/10/28 01:47:51;;;;;;;;;;;;;;;9.88;96.01;100681.66;1686157;85;20226;-83
2022/10/28 01:50:21;;;;;;;;;;;;;;;9.85;96.16;100675.55;1685784;84;21555;-85
2022/10/28 01:52:48;;;;;;;;;;;;;;;9.83;96.30;100676.45;1685667;85;20295;-82
2022/10/28 01:55:27;;;;;;;;;;;;;;;9.79;96.48;100683.51;1685609;84;20401;-85
2022/10/28 01:57:54;;;;;;;;;;;;;;;9.76;96.65;100671.72;1686134;85;20218;-83
2022/10/28 02:00:21;;;;;;;;;;;;;;;9.75;96.81;100679.19;1689479;84;20155;-79
2022/10/28 02:02:47;;;;;;;;;;;;;;;9.73;97.04;100684.03;1689749;85;21068;-80
2022/10/28 02:05:39;;;;;;;;;;;;;;;9.70;97.20;100680.13;1689369;84;20179;-85
2022/10/28 02:08:21;;;;;;;;;;;;;;;9.69;97.29;100676.63;1685618;84;20226;-84
2022/10/28 02:11:01;;;;;;;;;;;;;;;9.69;97.48;100683.66;1685649;85;20144;-85
2022/10/28 02:13:40;;;;;;;;;;;;;;;9.65;97.66;100678.43;1685750;84;20509;-83
2022/10/28 02:16:12;;;;;;;;;;;;;;;9.62;97.83;100681.09;1685669;84;20182;-86
2022/10/28 02:19:06;;;;;;;;;;;;;;;9.61;98.05;100684.59;1685752;84;20262;-83
2022/10/28 02:21:37;;;;;;;;;;;;;;;9.58;98.22;100682.03;1685741;85;20198;-86
2022/10/28 02:24:22;;;;;;;;;;;;;;;9.53;98.44;100672.02;1686007;85;20644;-83
2022/10/28 02:26:53;;;;;;;;;;;;;;;9.52;98.66;100672.89;1685682;84;20237;-84
2022/10/28 02:29:26;;;;;;;;;;;;;;;9.53;98.75;100673.34;1685703;84;21111;-81
2022/10/28 02:31:57;;;;;;;;;;;;;;;9.54;98.86;100666.31;1685652;84;20222;-85
2022/10/28 02:34:27;;;;;;;;;;;;;;;9.54;98.98;100675.05;1685944;85;20225;-84
2022/10/28 02:36:53;;;;;;;;;;;;;;;9.54;99.04;100677.68;1685812;84;20421;-82
2022/10/28 02:39:23;;;;;;;;;;;;;;;9.53;99.07;100677.27;1658266;85;20541;-86
2022/10/28 02:41:58;;;;;;;;;;;;;;;9.54;99.10;100680.31;1686187;84;21132;-85
2022/10/28 02:44:30;;;;;;;;;;;;;;;9.52;99.14;100682.09;1685768;84;20198;-81
2022/10/28 02:46:59;;;;;;;;;;;;;;;9.48;99.22;100686.52;1686009;84;20206;-85
2022/10/28 02:49:26;;;;;;;;;;;;;;;9.46;99.37;100683.46;1685635;85;20242;-85
2022/10/28 02:51:55;;;;;;;;;;;;;;;9.44;99.52;100678.67;1686215;85;20202;-86
2022/10/28 02:54:24;;;;;;;;;;;;;;;9.44;99.54;100677.36;1685645;84;21804;-84
2022/10/28 02:57:17;;;;;;;;;;;;;;;9.45;99.48;100675.17;1685853;84;20171;-85
2022/10/28 02:59:55;;;;;;;;;;;;;;;9.45;99.44;100679.12;1685809;85;20533;-86
2022/10/28 03:02:22;;;;;;;;;;;;;;;9.43;99.39;100676.50;1685997;84;20270;-84
2022/10/28 03:04:48;;;;;;;;;;;;;;;9.39;99.45;100670.84;1685916;85;20175;-83
2022/10/28 03:07:14;;;;;;;;;;;;;;;9.38;99.55;100677.00;1686013;85;21101;-85
2022/10/28 03:10:04;;;;;;;;;;;;;;;9.36;99.54;100670.87;1685774;84;20182;-86
2022/10/28 03:12:30;;;;;;;;;;;;;;;9.34;99.61;100677.91;1681758;84;20211;-84
2022/10/28 03:14:57;;;;;;;;;;;;;;;9.30;99.67;100674.45;1678987;85;20599;-85
2022/10/28 03:17:23;;;;;;;;;;;;;;;9.27;99.82;100673.16;1678984;85;20500;-82
2022/10/28 03:19:51;;;;;;;;;;;;;;;9.27;99.87;100673.16;1678980;85;21797;-84
2022/10/28 03:22:18;;;;;;;;;;;;;;;9.25;99.91;100681.50;1678846;85;21347;-86
2022/10/28 03:24:45;;;;;;;;;;;;;;;9.23;99.99;100679.34;1678845;85;20168;-86
2022/10/28 03:27:11;;;;;;;;;;;;;;;9.20;100.00;100670.63;1678962;85;20235;-85
2022/10/28 03:29:37;;;;;;;;;;;;;;;9.18;100.00;100678.52;1678836;85;20227;-86
2022/10/28 03:32:04;;;;;;;;;;;;;;;9.17;100.00;100674.59;1678974;85;21589;-85
2022/10/28 03:34:32;;;;;;;;;;;;;;;9.16;100.00;100680.72;1678729;85;20283;-85
2022/10/28 03:36:59;;;;;;;;;;;;;;;9.15;100.00;100679.86;1678978;85;20171;-84
2022/10/28 03:39:25;;;;;;;;;;;;;;;9.15;100.00;100677.69;1679016;85;20140;-80
2022/10/28 03:41:51;;;;;;;;;;;;;;;9.13;100.00;100677.70;1678908;85;20492;-86
2022/10/28 03:44:17;;;;;;;;;;;;;;;9.10;100.00;100675.10;1679084;85;21214;-86
2022/10/28 03:46:44;;;;;;;;;;;;;;;9.08;100.00;100685.62;1679065;85;20202;-85
2022/10/28 03:49:10;;;;;;;;;;;;;;;9.07;100.00;100674.67;1678793;85;20231;-85
2022/10/28 03:51:37;;;;;;;;;;;;;;;9.06;100.00;100674.69;1678956;85;20400;-84
2022/10/28 03:54:04;;;;;;;;;;;;;;;9.05;100.00;100675.14;1678750;85;20172;-81
2022/10/28 03:56:30;;;;;;;;;;;;;;;9.04;100.00;100666.83;1678984;85;21858;-85
2022/10/28 03:58:57;;;;;;;;;;;;;;;9.04;100.00;100671.22;1678810;85;20207;-86
2022/10/28 04:01:23;;;;;;;;;;;;;;;9.02;100.00;100665.11;1679098;85;20207;-85
2022/10/28 04:03:50;;;;;;;;;;;;;;;9.01;100.00;100668.61;1678995;85;20207;-85
2022/10/28 04:06:16;;;;;;;;;;;;;;;8.99;100.00;100665.14;1679010;85;20772;-82
2022/10/28 04:08:43;;;;;;;;;;;;;;;9.01;100.00;100663.36;1678792;85;21257;-85
2022/10/28 04:11:09;;;;;;;;;;;;;;;9.00;100.00;100659.88;1678841;85;20184;-83
2022/10/28 04:13:35;;;;;;;;;;;;;;;8.99;100.00;100662.52;1678771;85;20226;-86
2022/10/28 04:16:03;;;;;;;;;;;;;;;8.96;100.00;100662.12;1678909;85;20447;-86
2022/10/28 04:18:31;;;;;;;;;;;;;;;8.96;100.00;100662.54;1678771;85;20218;-85
2022/10/28 04:20:58;;;;;;;;;;;;;;;8.94;100.00;100661.23;1678788;85;21196;-85
2022/10/28 04:23:25;;;;;;;;;;;;;;;8.92;100.00;100670.44;1678981;85;20501;-83
2022/10/28 04:25:54;;;;;;;;;;;;;;;8.89;100.00;100666.97;1678786;85;20140;-85
2022/10/28 04:28:22;;;;;;;;;;;;;;;8.87;100.00;100666.98;1678837;85;20634;-85
2022/10/28 04:30:49;;;;;;;;;;;;;;;8.86;100.00;100673.14;1678955;85;20222;-85
2022/10/28 04:33:15;;;;;;;;;;;;;;;8.85;100.00;100675.33;1678761;85;21156;-85
2022/10/28 04:35:42;;;;;;;;;;;;;;;8.84;100.00;100671.39;1678748;85;20254;-85
2022/10/28 04:38:09;;;;;;;;;;;;;;;8.84;100.00;100670.98;1678882;85;20608;-86
2022/10/28 04:40:37;;;;;;;;;;;;;;;8.84;100.00;100661.80;1678779;85;20199;-86
2022/10/28 04:43:04;;;;;;;;;;;;;;;8.86;100.00;100668.31;1679181;85;20211;-86
2022/10/28 04:45:31;;;;;;;;;;;;;;;8.85;100.00;100663.52;1678763;85;21994;-83
2022/10/28 04:48:00;;;;;;;;;;;;;;;8.82;100.00;100659.60;1678835;85;20282;-84
2022/10/28 04:50:28;;;;;;;;;;;;;;;8.81;100.00;100660.50;1678614;85;20207;-83
2022/10/28 04:52:55;;;;;;;;;;;;;;;8.80;100.00;100661.38;1678836;85;20203;-86
2022/10/28 04:55:21;;;;;;;;;;;;;;;8.78;100.00;100663.15;1678914;85;20211;-87
2022/10/28 04:57:58;;;;;;;;;;;;;;;8.78;100.00;100659.21;1679061;85;21145;-86
2022/10/28 05:00:25;;;;;;;;;;;;;;;8.79;100.00;100667.95;1678617;85;20219;-84
2022/10/28 05:02:52;;;;;;;;;;;;;;;8.79;100.00;100664.87;1678995;85;20211;-88
2022/10/28 05:05:18;;;;;;;;;;;;;;;8.77;100.00;100664.47;1678776;85;20214;-86
2022/10/28 05:07:45;;;;;;;;;;;;;;;8.72;100.00;100664.08;1679061;85;20235;-85
2022/10/28 05:10:16;;;;;;;;;;;;;;;8.73;100.00;100670.19;1678885;85;20278;-85
2022/10/28 05:12:47;;;;;;;;;;;;;;;8.71;100.00;100667.58;1675175;85;20167;-85
2022/10/28 05:15:14;;;;;;;;;;;;;;;8.70;100.00;100671.52;1674633;85;20443;-87
2022/10/28 05:17:44;;;;;;;;;;;;;;;8.70;100.00;100669.76;1674496;85;20425;-85
2022/10/28 05:20:11;;;;;;;;;;;;;;;8.72;100.00;100677.63;1674794;85;20204;-83
2022/10/28 05:22:46;;;;;;;;;;;;;;;8.74;100.00;100675.84;1674631;85;20992;-83
2022/10/28 05:25:13;;;;;;;;;;;;;;;8.73;100.00;100675.44;1674831;85;20231;-87
2022/10/28 05:27:39;;;;;;;;;;;;;;;8.72;100.00;100678.52;1674680;85;20227;-85
2022/10/28 05:30:07;;;;;;;;;;;;;;;8.75;100.00;100682.85;1674728;85;20445;-84
2022/10/28 05:32:34;;;;;;;;;;;;;;;8.74;100.00;100685.92;1674783;85;20176;-85
2022/10/28 05:35:01;;;;;;;;;;;;;;;8.74;100.00;100681.09;1674556;85;21160;-85
2022/10/28 05:37:27;;;;;;;;;;;;;;;8.75;100.00;100678.91;1675024;85;20207;-86
2022/10/28 05:39:54;;;;;;;;;;;;;;;8.78;100.00;100685.45;1674690;85;20274;-86
2022/10/28 05:42:20;;;;;;;;;;;;;;;8.79;100.00;100680.61;1674896;85;20200;-84
2022/10/28 05:44:46;;;;;;;;;;;;;;;8.78;100.00;100685.45;1674628;85;20191;-86
2022/10/28 05:47:13;;;;;;;;;;;;;;;8.78;100.00;100681.52;1674642;85;21164;-84
2022/10/28 05:49:39;;;;;;;;;;;;;;;8.78;100.00;100685.45;1674526;85;20160;-83
2022/10/28 05:52:05;;;;;;;;;;;;;;;8.79;100.00;100692.42;1674874;84;20152;-85
2022/10/28 05:54:31;;;;;;;;;;;;;;;8.78;100.00;100692.02;1674526;85;20227;-85
2022/10/28 05:56:58;;;;;;;;;;;;;;;8.77;100.00;100700.76;1674758;85;20218;-85
2022/10/28 05:59:24;;;;;;;;;;;;;;;8.75;100.00;100688.09;1674938;85;21152;-84
2022/10/28 06:01:50;;;;;;;;;;;;;;;8.78;100.00;100695.95;1674559;85;21029;-82
2022/10/28 06:04:18;;;;;;;;;;;;;;;8.80;100.00;100694.18;1674556;85;20219;-83
2022/10/28 06:06:45;;;;;;;;;;;;;;;8.80;100.00;100696.80;1674646;85;20669;-86
2022/10/28 06:09:12;;;;;;;;;;;;;;;8.78;100.00;100700.34;1674801;85;20973;-85
2022/10/28 06:11:39;;;;;;;;;;;;;;;8.81;100.00;100705.53;1679924;84;22000;-85
2022/10/28 06:14:06;;;;;;;;;;;;;;;8.84;100.00;100702.47;1691997;84;20213;-86
2022/10/28 06:16:32;;;;;;;;;;;;;;;8.85;100.00;100700.25;1690248;84;20267;-84
2022/10/28 06:18:59;;;;;;;;;;;;;;;8.87;100.00;100700.25;1686477;85;21246;-83
2022/10/28 06:21:26;;;;;;;;;;;;;;;8.90;100.00;100706.33;1686341;85;20181;-85
2022/10/28 06:23:53;;;;;;;;;;;;;;;8.95;100.00;100712.86;1686610;85;21237;-86
2022/10/28 06:26:19;;;;;;;;;;;;;;;8.96;100.00;100716.34;1686739;85;20607;-84
2022/10/28 06:28:47;;;;;;;;;;;;;;;8.97;100.00;100711.55;1686509;85;20245;-85
2022/10/28 06:31:13;;;;;;;;;;;;;;;8.98;100.00;100718.52;1686838;85;21089;-83
2022/10/28 06:36:32;;;;;;;;;;;;;;;9.04;100.00;100723.72;1686808;83;21134;-84
2022/10/28 06:38:59;;;;;;;;;;;;;;;9.05;100.00;100717.14;1686423;83;20222;-85
2022/10/28 06:41:26;;;;;;;;;;;;;;;9.05;100.00;100721.53;1686765;85;20171;-85
2022/10/28 06:43:52;;;;;;;;;;;;;;;9.07;100.00;100719.76;1686669;85;20327;-84
2022/10/28 06:46:20;;;;;;;;;;;;;;;9.09;100.00;100721.92;1686730;85;20238;-79
2022/10/28 06:48:47;;;;;;;;;;;;;;;9.12;100.00;100716.64;1686662;85;21110;-82
2022/10/28 06:51:15;;;;;;;;;;;;;;;9.17;100.00;100722.72;1686490;85;20168;-81
2022/10/28 06:53:42;;;;;;;;;;;;;;;9.25;100.00;100720.03;1686996;83;20565;-84
2022/10/28 06:56:10;;;;;;;;;;;;;;;9.35;100.00;100720.83;1686640;85;20242;-83
2022/10/28 06:58:36;;;;;;;;;;;;;;;9.46;100.00;100718.93;1686601;85;20206;-84
2022/10/28 07:01:04;;;;;;;;;;;;;;;9.56;100.00;100717.08;1686478;83;21576;-82
2022/10/28 07:03:34;;;;;;;;;;;;;;;9.69;100.00;100716.50;1686879;85;20211;-79
2022/10/28 07:06:00;;;;;;;;;;;;;;;9.79;100.00;100719.45;1687897;85;20190;-84
2022/10/28 07:08:27;;;;;;;;;;;;;;;9.85;100.00;100719.35;1687665;85;20220;-86
2022/10/28 07:10:55;;;;;;;;;;;;;;;9.88;100.00;100718.00;1686997;85;20561;-83
2022/10/28 07:13:22;;;;;;;;;;;;;;;9.89;100.00;100724.16;1686512;84;21911;-82
2022/10/28 07:15:54;;;;;;;;;;;;;;;9.88;99.29;100711.43;1686488;83;20144;-81
2022/10/28 07:18:21;;;;;;;;;;;;;;;9.89;98.93;100712.33;1686586;83;20199;-77
2022/10/28 07:20:47;;;;;;;;;;;;;;;9.86;98.73;100709.27;1686724;85;20753;-85
2022/10/28 07:23:14;;;;;;;;;;;;;;;9.88;98.86;100719.31;1686542;85;20206;-84
2022/10/28 07:25:41;;;;;;;;;;;;;;;9.91;98.71;100709.22;1686668;83;21789;-84
2022/10/28 07:28:07;;;;;;;;;;;;;;;9.95;98.78;100703.91;1686360;85;20176;-84
2022/10/28 07:30:35;;;;;;;;;;;;;;;10.01;98.73;100707.76;1686524;85;20374;-82
2022/10/28 07:33:03;;;;;;;;;;;;;;;10.07;98.39;100703.30;1686563;85;20234;-85
2022/10/28 07:35:30;;;;;;;;;;;;;;;10.15;97.90;100703.62;1663462;85;20221;-83
2022/10/28 07:37:57;;;;;;;;;;;;;;;10.22;97.45;100699.14;1686625;85;21102;-85
2022/10/28 07:40:23;;;;;;;;;;;;;;;10.27;97.20;100693.40;1686600;85;20234;-82
2022/10/28 07:42:51;;;;;;;;;;;;;;;10.30;96.14;100692.47;1686629;85;20152;-85
2022/10/28 07:45:19;;;;;;;;;;;;;;;10.33;95.89;100694.64;1686527;85;20504;-85
2022/10/28 07:47:45;;;;;;;;;;;;;;;10.38;95.65;100694.13;1686496;85;20195;-85
2022/10/28 07:50:12;;;;;;;;;;;;;;;10.39;94.95;100699.82;1686444;85;21139;-85
2022/10/28 07:52:38;;;;;;;;;;;;;;;10.43;94.57;100698.47;1686382;85;20250;-84
2022/10/28 07:55:05;;;;;;;;;;;;;;;10.45;94.07;100692.27;1686758;85;20468;-83
2022/10/28 07:57:32;;;;;;;;;;;;;;;10.50;94.18;100694.84;1686466;85;20461;-85
2022/10/28 07:59:58;;;;;;;;;;;;;;;10.55;94.09;100693.00;1663205;85;20998;-87
2022/10/28 08:02:25;;;;;;;;;;;;;;;10.59;94.08;100694.68;1686356;83;21230;-85
2022/10/28 08:04:51;;;;;;;;;;;;;;;10.66;93.75;100695.45;1686654;85;20210;-84
2022/10/28 08:07:18;;;;;;;;;;;;;;;10.72;93.22;100694.05;1686515;85;20254;-86
2022/10/28 08:09:46;;;;;;;;;;;;;;;10.77;92.84;100687.80;1686316;85;20248;-84
2022/10/28 08:12:13;;;;;;;;;;;;;;;10.85;92.22;100692.09;1686544;85;20297;-83
2022/10/28 08:14:41;;;;;;;;;;;;;;;10.90;90.84;100698.14;1686330;85;21163;-86
2022/10/28 08:17:07;;;;;;;;;;;;;;;10.92;90.49;100692.40;1686745;85;20202;-85
2022/10/28 08:19:34;;;;;;;;;;;;;;;10.97;89.94;100697.14;1686546;83;20214;-86
2022/10/28 08:22:02;;;;;;;;;;;;;;;11.01;90.03;100690.05;1686536;85;20202;-84
2022/10/28 08:24:28;;;;;;;;;;;;;;;11.08;90.29;100685.12;1686421;83;20194;-83
2022/10/28 08:26:55;;;;;;;;;;;;;;;11.19;90.33;100684.91;1686538;85;21807;-81
2022/10/28 08:29:21;;;;;;;;;;;;;;;11.31;89.37;100688.62;1686575;85;20222;-87
2022/10/28 08:31:47;;;;;;;;;;;;;;;11.38;88.27;100695.53;1686567;85;20211;-86
2022/10/28 08:34:13;;;;;;;;;;;;;;;11.43;87.86;100692.36;1686791;85;20211;-83
2022/10/28 08:36:40;;;;;;;;;;;;;;;11.49;87.50;100694.86;1686477;85;20294;-85
2022/10/28 08:39:06;;;;;;;;;;;;;;;11.56;87.27;100698.70;1686648;85;21803;-84
2022/10/28 08:41:46;;;;;;;;;;;;;;;11.66;86.99;100698.93;1686224;85;20215;-85
2022/10/28 08:44:22;;;;;;;;;;;;;;;11.76;85.64;100701.80;1655755;85;20214;-83
2022/10/28 08:47:17;;;;;;;;;;;;;;;11.84;84.86;100699.88;1686340;85;20512;-86
2022/10/28 08:49:44;;;;;;;;;;;;;;;11.96;84.90;100704.52;1686356;85;20223;-85
2022/10/28 08:52:31;;;;;;;;;;;;;;;12.09;83.16;100704.67;1686456;85;21139;-86
2022/10/28 08:55:07;;;;;;;;;;;;;;;12.16;83.14;100698.34;1686845;85;20206;-85
2022/10/28 08:57:58;;;;;;;;;;;;;;;12.30;82.78;100698.48;1686451;85;20214;-86
2022/10/28 09:00:26;;;;;;;;;;;;;;;12.39;81.34;100689.02;1686672;85;20541;-80
2022/10/28 09:03:12;;;;;;;;;;;;;;;12.45;79.95;100691.53;1686501;85;20397;-85
2022/10/28 09:05:46;;;;;;;;;;;;;;;12.50;79.98;100689.65;1686272;85;20183;-84
2022/10/28 09:08:22;;;;;;;;;;;;;;;12.56;78.60;100686.88;1686665;83;20227;-86
2022/10/28 09:11:01;;;;;;;;;;;;;;;12.62;78.24;100686.73;1686750;85;20213;-83
2022/10/28 09:13:50;;;;;;;;;;;;;;;12.68;77.09;100681.75;1686409;85;20175;-85
2022/10/28 09:16:29;;;;;;;;;;;;;;;12.72;76.44;100682.53;1686408;85;20207;-86
2022/10/28 09:18:58;;;;;;;;;;;;;;;12.83;75.29;100677.39;1686493;85;21169;-85
2022/10/28 09:21:33;;;;;;;;;;;;;;;12.94;74.79;100675.78;1686594;85;20144;-85
2022/10/28 09:24:04;;;;;;;;;;;;;;;12.99;74.62;100676.56;1685936;85;20254;-81
2022/10/28 09:26:43;;;;;;;;;;;;;;;13.06;72.73;100671.09;1686713;85;20203;-86
2022/10/28 09:29:41;;;;;;;;;;;;;;;13.09;69.11;100678.95;1686045;85;20237;-85
2022/10/28 09:32:23;;;;;;;;;;;;;;;13.11;69.85;100669.20;1686720;85;21144;-85
2022/10/28 09:34:53;;;;;;;;;;;;;;;13.19;68.20;100673.83;1686211;85;20248;-88
2022/10/28 09:37:22;;;;;;;;;;;;;;;13.26;65.36;100668.78;1686392;85;21051;-84
2022/10/28 09:39:55;;;;;;;;;;;;;;;13.26;64.91;100671.42;1686392;85;20207;-84
2022/10/28 09:42:24;;;;;;;;;;;;;;;13.25;65.42;100667.53;1686723;85;20202;-85
2022/10/28 09:44:54;;;;;;;;;;;;;;;13.27;65.39;100660.42;1686468;85;21091;-88
2022/10/28 09:47:24;;;;;;;;;;;;;;;13.34;64.76;100666.83;1686466;85;20215;-86
2022/10/28 09:49:50;;;;;;;;;;;;;;;13.41;63.80;100655.63;1686372;85;21015;-88
2022/10/28 09:52:20;;;;;;;;;;;;;;;13.43;65.14;100651.63;1686710;83;20540;-87
2022/10/28 09:54:51;;;;;;;;;;;;;;;13.47;62.52;100660.77;1686577;83;20502;-86
2022/10/28 09:57:19;;;;;;;;;;;;;;;13.45;63.65;100656.41;1686688;83;21167;-86
2022/10/28 09:59:46;;;;;;;;;;;;;;;13.50;64.49;100655.82;1686297;85;20151;-87
2022/10/28 10:02:27;;;;;;;;;;;;;;;13.56;61.24;100656.98;1686545;85;20226;-87
2022/10/28 10:04:55;;;;;;;;;;;;;;;13.56;62.45;100647.73;1686930;85;20531;-87
2022/10/28 10:07:34;;;;;;;;;;;;;;;13.60;63.02;100643.21;1686556;85;20164;-86
2022/10/28 10:10:02;;;;;;;;;;;;;;;13.65;61.10;100642.19;1686382;84;21121;-82
2022/10/28 10:12:29;;;;;;;;;;;;;;;13.70;60.34;100640.27;1686501;83;20143;-82
2022/10/28 10:14:55;;;;;;;;;;;;;;;13.78;59.85;100645.31;1663072;85;20151;-83
2022/10/28 10:17:30;;;;;;;;;;;;;;;13.84;58.00;100638.53;1686690;83;20222;-86
2022/10/28 10:20:05;;;;;;;;;;;;;;;13.86;56.92;100637.16;1686585;85;20258;-86
2022/10/28 10:22:40;;;;;;;;;;;;;;;13.87;56.13;100635.80;1686460;85;20649;-86
2022/10/28 10:25:22;;;;;;;;;;;;;;;13.84;56.07;100636.35;1686026;84;20231;-85
2022/10/28 10:28:03;;;;;;;;;;;;;;;13.78;56.91;100631.23;1686700;85;20194;-87
2022/10/28 10:30:32;;;;;;;;;;;;;;;13.78;56.84;100631.23;1662912;85;21297;-85
2022/10/28 10:32:58;;;;;;;;;;;;;;;13.77;57.92;100624.20;1686602;85;20226;-87
2022/10/28 10:35:33;;;;;;;;;;;;;;;13.80;59.33;100625.00;1686733;83;21158;-87
2022/10/28 10:38:13;;;;;;;;;;;;;;;13.96;58.98;100624.06;1686388;85;20207;-82
2022/10/28 10:40:51;;;;;;;;;;;;;;;14.14;57.91;100625.27;1662533;85;20218;-87
2022/10/28 10:43:21;;;;;;;;;;;;;;;14.24;55.38;100617.88;1686774;85;20414;-83
2022/10/28 10:45:53;;;;;;;;;;;;;;;14.20;54.95;100621.55;1686379;83;20524;-86
2022/10/28 10:48:19;;;;;;;;;;;;;;;14.13;54.37;100615.12;1686790;85;21115;-88
2022/10/28 10:50:47;;;;;;;;;;;;;;;14.12;55.56;100613.41;1686334;85;20238;-85
2022/10/28 10:53:24;;;;;;;;;;;;;;;14.17;56.36;100617.67;1686536;85;20219;-84
2022/10/28 10:55:53;;;;;;;;;;;;;;;14.27;57.09;100616.46;1686610;83;20746;-87
2022/10/28 10:58:22;;;;;;;;;;;;;;;14.37;54.73;100616.56;1686769;85;20235;-84
2022/10/28 11:00:50;;;;;;;;;;;;;;;14.37;54.70;100617.89;1686259;85;21155;-85
2022/10/28 11:03:26;;;;;;;;;;;;;;;14.37;54.66;100609.09;1686532;83;20496;-87
2022/10/28 11:05:57;;;;;;;;;;;;;;;14.41;55.46;100601.48;1686589;83;20226;-86
2022/10/28 11:08:33;;;;;;;;;;;;;;;14.49;53.54;100612.22;1686622;85;20524;-83
2022/10/28 11:11:20;;;;;;;;;;;;;;;14.48;53.77;100614.91;1686515;85;20210;-86
2022/10/28 11:13:48;;;;;;;;;;;;;;;14.43;53.52;100607.11;1691655;84;21580;-86
2022/10/28 11:16:17;;;;;;;;;;;;;;;14.49;54.14;100604.27;1696475;84;20195;-85
2022/10/28 11:18:45;;;;;;;;;;;;;;;14.58;53.71;100602.23;1696502;84;20205;-81
2022/10/28 11:21:33;;;;;;;;;;;;;;;14.67;54.15;100604.59;1696374;84;20198;-84
2022/10/28 11:24:22;;;;;;;;;;;;;;;14.78;53.87;100603.77;1696104;84;20202;-86
2022/10/28 11:27:01;;;;;;;;;;;;;;;14.89;52.76;100599.87;1687891;84;21138;-84
2022/10/28 11:29:29;;;;;;;;;;;;;;;14.82;52.41;100600.55;1696386;84;20261;-84
2022/10/28 11:31:59;;;;;;;;;;;;;;;14.79;53.54;100597.56;1696375;84;20161;-85
2022/10/28 11:34:38;;;;;;;;;;;;;;;14.79;53.20;100600.21;1696489;84;20678;-85
2022/10/28 11:37:17;;;;;;;;;;;;;;;14.82;53.26;100598.75;1696836;84;20244;-85
2022/10/28 11:39:56;;;;;;;;;;;;;;;14.94;53.52;100589.98;1696275;84;21127;-83
2022/10/28 11:42:48;;;;;;;;;;;;;;;15.17;52.25;100587.83;1695289;84;20734;-86
2022/10/28 11:45:21;;;;;;;;;;;;;;;15.24;51.43;100586.67;1696492;84;20294;-84
2022/10/28 11:48:07;;;;;;;;;;;;;;;15.22;51.72;100585.41;1682870;84;20622;-86
2022/10/28 11:50:46;;;;;;;;;;;;;;;15.37;52.16;100581.80;1696583;84;20396;-84
2022/10/28 11:53:22;;;;;;;;;;;;;;;15.70;52.42;100574.78;1696633;84;21150;-82
2022/10/28 11:55:55;;;;;;;;;;;;;;;15.95;50.27;100566.30;1670857;84;20218;-83
2022/10/28 11:58:28;;;;;;;;;;;;;;;16.15;49.31;100564.62;1696999;84;20186;-84
2022/10/28 12:01:23;;;;;;;;;;;;;;;16.29;49.74;100558.73;1696360;84;20189;-85
2022/10/28 12:03:57;;;;;;;;;;;;;;;16.57;49.08;100560.23;1701553;84;20201;-81
2022/10/28 12:06:33;;;;;;;;;;;;;;;17.00;47.92;100559.25;1699569;83;21336;-80
2022/10/28 12:09:09;;;;;;;;;;;;;;;17.25;46.93;100571.45;1698058;83;20181;-86
2022/10/28 12:12:04;;;;;;;;;;;;;;;17.33;46.79;100563.99;1696724;84;20253;-85
2022/10/28 12:14:44;;;;;;;;;;;;;;;17.42;46.64;100558.70;1697592;84;20217;-85
2022/10/28 12:17:16;;;;;;;;;;;;;;;17.65;47.08;100557.61;1697046;84;20524;-85
2022/10/28 12:19:46;;;;;;;;;;;;;;;17.77;46.50;100554.38;1696514;84;21247;-85
2022/10/28 12:22:18;;;;;;;;;;;;;;;17.99;47.10;100549.39;1697060;84;20164;-84
2022/10/28 12:24:44;;;;;;;;;;;;;;;18.16;46.15;100553.88;1696702;83;20646;-87
2022/10/28 12:27:15;;;;;;;;;;;;;;;17.94;45.71;100551.41;1696786;83;20515;-87
2022/10/28 12:29:43;;;;;;;;;;;;;;;17.60;45.81;100554.30;1696354;83;20543;-86
2022/10/28 12:32:21;;;;;;;;;;;;;;;17.37;45.84;100543.42;1697078;84;22247;-83
2022/10/28 12:35:19;;;;;;;;;;;;;;;17.16;46.75;100551.91;1696660;84;20201;-85
2022/10/28 12:37:52;;;;;;;;;;;;;;;17.00;46.69;100545.96;1696754;84;20652;-85
2022/10/28 12:40:21;;;;;;;;;;;;;;;16.88;47.46;100544.72;1696907;84;20170;-82
2022/10/28 12:42:56;;;;;;;;;;;;;;;17.01;47.97;100545.04;1696429;84;20179;-87
2022/10/28 12:45:22;;;;;;;;;;;;;;;17.37;47.29;100538.96;1696836;84;21631;-85
2022/10/28 12:47:58;;;;;;;;;;;;;;;17.72;46.42;100539.10;1696976;84;20453;-85
2022/10/28 12:50:41;;;;;;;;;;;;;;;17.93;45.40;100539.02;1697020;84;20218;-86
2022/10/28 12:53:42;;;;;;;;;;;;;;;17.94;45.38;100541.61;1696932;84;20148;-86
2022/10/28 12:56:21;;;;;;;;;;;;;;;17.99;45.57;100538.73;1697090;84;20234;-84
2022/10/28 12:58:54;;;;;;;;;;;;;;;18.24;45.55;100537.05;1696148;84;21174;-86
2022/10/28 13:01:21;;;;;;;;;;;;;;;18.48;44.27;100536.73;1695627;84;20233;-85